Ashford, Alabama
Current Conditions -  °F | °C
As of 11:53 AM on Monday 24 Nov 2014 (Local Time) from KDHN Reporting Station
Clear Clear  
Wind Chill: 76°   Ceiling: Unl
Heat Index: 76°   Visibility: 10mi
Dew Point: 61°   Wind: 8mph
Humidity: 60%   Direction: 230°SW
Pressure: 29.86"   Gusts: NA
Location:  31.18°N, 85.24°W
Report Text: KDHN 241753Z 23007KT 10SM CLR 24/16 A2986 RMK AO2 SLP108 T02440161 10250 20178 58008
Loading
Personal Weather Stations






























Interactive Weather Map New forecast layout! Learn more

10-Day Weather Forecast

Advertisements
Track Severe Weather on mobile